createdAt,value
2018-01-23T00:00:36.925Z,0.00
2018-01-23T00:01:36.919Z,0.00
2018-01-23T00:02:36.913Z,0.00
2018-01-23T00:03:36.907Z,0.00
2018-01-23T00:04:36.898Z,0.00
2018-01-23T00:05:36.892Z,0.00
2018-01-23T00:06:36.880Z,0.00
2018-01-23T00:07:36.871Z,0.00
2018-01-23T00:08:36.864Z,0.00
2018-01-23T00:09:36.856Z,0.00
2018-01-23T00:10:36.853Z,0.00
2018-01-23T00:11:36.845Z,0.00
2018-01-23T00:12:36.837Z,0.00
2018-01-23T00:13:36.830Z,0.00
2018-01-23T00:14:36.821Z,0.00
2018-01-23T00:15:36.814Z,0.00
2018-01-23T00:16:36.806Z,0.00
2018-01-23T00:17:36.799Z,0.00
2018-01-23T00:18:36.787Z,0.00
2018-01-23T00:19:36.779Z,0.00
2018-01-23T00:20:36.771Z,0.00
2018-01-23T00:21:36.764Z,0.00
2018-01-23T00:22:36.755Z,0.00
2018-01-23T00:23:36.753Z,0.00
2018-01-23T00:24:36.741Z,0.00
2018-01-23T00:25:36.733Z,0.00
2018-01-23T00:26:36.729Z,0.00
2018-01-23T00:27:36.724Z,0.00
2018-01-23T00:28:36.714Z,0.00
2018-01-23T00:29:36.708Z,0.00
2018-01-23T00:30:36.700Z,0.00
2018-01-23T00:31:36.691Z,0.00
2018-01-23T00:32:36.684Z,0.00
2018-01-23T00:34:36.667Z,0.00
2018-01-23T00:35:36.656Z,0.00
2018-01-23T00:36:36.648Z,0.00
2018-01-23T00:37:36.640Z,0.00
2018-01-23T00:38:36.632Z,0.00
2018-01-23T00:39:36.625Z,0.00
2018-01-23T00:40:36.618Z,0.00
2018-01-23T00:41:36.610Z,0.00
2018-01-23T00:42:36.601Z,0.00
2018-01-23T00:43:36.597Z,0.00
2018-01-23T00:44:36.591Z,0.00
2018-01-23T00:45:36.582Z,0.00
2018-01-23T00:46:36.575Z,0.00
2018-01-23T00:47:36.567Z,0.00
2018-01-23T00:48:36.558Z,0.00
2018-01-23T00:49:36.551Z,0.00
2018-01-23T00:50:36.542Z,0.00
2018-01-23T00:51:36.530Z,0.00
2018-01-23T00:52:36.521Z,0.00
2018-01-23T00:53:36.514Z,0.00
2018-01-23T00:54:36.505Z,0.00
2018-01-23T00:55:36.497Z,0.00
2018-01-23T00:56:36.489Z,0.00
2018-01-23T00:57:36.481Z,0.00
2018-01-23T00:58:36.472Z,0.00
2018-01-23T00:59:36.469Z,0.00
2018-01-23T01:00:36.462Z,0.00
2018-01-23T01:01:36.453Z,0.00
2018-01-23T01:02:36.443Z,0.00
2018-01-23T01:03:36.436Z,0.00
2018-01-23T01:04:36.428Z,0.00
2018-01-23T01:05:36.421Z,0.00
2018-01-23T01:06:36.412Z,0.00
2018-01-23T01:07:36.400Z,0.00
2018-01-23T01:08:36.393Z,0.00
2018-01-23T01:09:36.384Z,0.00
2018-01-23T01:10:36.375Z,0.00
2018-01-23T01:11:36.385Z,0.00
2018-01-23T01:12:36.365Z,0.00
2018-01-23T01:13:36.356Z,0.00
2018-01-23T01:14:36.348Z,0.00
2018-01-23T01:15:36.339Z,0.00
2018-01-23T01:16:36.330Z,0.00
2018-01-23T01:17:36.320Z,0.00
2018-01-23T01:18:36.310Z,0.00
2018-01-23T01:19:36.304Z,0.00
2018-01-23T01:20:36.296Z,0.00
2018-01-23T01:21:36.288Z,0.00
2018-01-23T01:22:36.279Z,0.00
2018-01-23T01:23:36.275Z,0.00
2018-01-23T01:24:36.268Z,0.00
2018-01-23T01:25:36.260Z,0.00
2018-01-23T01:26:36.251Z,0.00
2018-01-23T01:27:36.242Z,0.00
2018-01-23T01:28:36.235Z,0.00
2018-01-23T01:29:36.230Z,0.00
2018-01-23T01:30:36.219Z,0.00
2018-01-23T01:31:36.207Z,0.00
2018-01-23T01:32:36.199Z,0.00
2018-01-23T01:33:36.192Z,0.00
2018-01-23T01:34:36.184Z,0.00
2018-01-23T01:35:36.174Z,0.00
2018-01-23T01:36:36.167Z,0.00
2018-01-23T01:37:36.159Z,0.00
2018-01-23T01:38:36.152Z,0.00
2018-01-23T01:39:36.147Z,0.00
2018-01-23T01:40:36.140Z,0.00
2018-01-23T01:41:36.133Z,0.00
2018-01-23T01:42:36.123Z,0.00
2018-01-23T01:43:36.117Z,0.00
2018-01-23T01:44:36.108Z,0.00
2018-01-23T01:45:36.100Z,0.00
2018-01-23T01:46:36.092Z,0.00
2018-01-23T01:47:36.080Z,0.00
2018-01-23T01:48:36.072Z,0.00
2018-01-23T01:49:36.065Z,0.00
2018-01-23T01:50:36.057Z,0.00
2018-01-23T01:51:36.048Z,0.00
2018-01-23T01:52:36.041Z,0.00
2018-01-23T01:53:36.034Z,0.00
2018-01-23T01:54:36.025Z,0.00
2018-01-23T01:55:36.022Z,0.00
2018-01-23T01:56:36.014Z,0.00
2018-01-23T01:57:36.007Z,0.00
2018-01-23T01:58:35.998Z,0.00
2018-01-23T01:59:35.990Z,0.00
2018-01-23T02:00:35.982Z,0.00
2018-01-23T02:01:35.975Z,0.00
2018-01-23T02:02:35.966Z,0.00
2018-01-23T02:03:35.954Z,0.00
2018-01-23T02:04:35.947Z,0.00
2018-01-23T02:05:35.942Z,0.00
2018-01-23T02:06:35.931Z,0.00
2018-01-23T02:07:35.922Z,0.00
2018-01-23T02:08:35.915Z,0.00
2018-01-23T02:09:35.908Z,0.00
2018-01-23T02:10:35.899Z,0.00
2018-01-23T02:11:35.896Z,0.00
2018-01-23T02:12:35.888Z,0.00
2018-01-23T02:13:35.879Z,0.00
2018-01-23T02:14:35.873Z,0.00
2018-01-23T02:15:35.861Z,0.00
2018-01-23T02:16:35.852Z,0.00
2018-01-23T02:17:35.844Z,0.00
2018-01-23T02:18:35.836Z,0.00
2018-01-23T02:19:35.833Z,0.00
2018-01-23T02:20:35.826Z,0.00
2018-01-23T02:21:35.818Z,0.00
2018-01-23T02:22:35.809Z,0.00
2018-01-23T02:23:35.801Z,0.00
2018-01-23T02:24:35.794Z,0.00
2018-01-23T02:25:35.786Z,0.00
2018-01-23T02:26:35.777Z,0.00
2018-01-23T02:27:35.765Z,0.00
2018-01-23T02:28:35.758Z,0.00
2018-01-23T02:29:35.750Z,0.00
2018-01-23T02:30:35.742Z,0.00
2018-01-23T02:31:35.734Z,0.00
2018-01-23T02:32:35.729Z,0.00
2018-01-23T02:33:35.718Z,0.00
2018-01-23T02:34:35.713Z,0.00
2018-01-23T02:35:35.708Z,0.00
2018-01-23T02:36:35.701Z,0.00
2018-01-23T02:37:35.691Z,0.00
2018-01-23T02:38:35.683Z,0.00
2018-01-23T02:39:35.677Z,0.00
2018-01-23T02:40:35.668Z,0.00
2018-01-23T02:41:35.661Z,0.00
2018-01-23T02:42:35.652Z,0.00
2018-01-23T02:43:35.641Z,0.00
2018-01-23T02:44:35.633Z,0.00
2018-01-23T02:45:35.625Z,0.00
2018-01-23T02:46:35.616Z,0.00
2018-01-23T02:47:35.609Z,0.00
2018-01-23T02:48:35.601Z,0.00
2018-01-23T02:49:35.594Z,0.00
2018-01-23T02:50:35.585Z,0.00
2018-01-23T02:51:35.582Z,0.00
2018-01-23T02:52:35.574Z,0.00
2018-01-23T02:53:35.567Z,0.00
2018-01-23T02:54:35.557Z,0.00
2018-01-23T02:55:35.550Z,0.00
2018-01-23T02:56:35.543Z,0.00
2018-01-23T02:57:35.535Z,0.00
2018-01-23T02:58:35.526Z,0.00
2018-01-23T02:59:35.514Z,0.00
2018-01-23T03:00:35.507Z,0.00
2018-01-23T03:01:35.499Z,0.00
2018-01-23T03:02:35.490Z,0.00
2018-01-23T03:03:35.483Z,0.00
2018-01-23T03:04:35.475Z,0.00
2018-01-23T03:05:35.468Z,0.00
2018-01-23T03:06:35.459Z,0.00
2018-01-23T03:07:35.456Z,0.00
2018-01-23T03:08:35.449Z,0.00
2018-01-23T03:09:35.441Z,0.00
2018-01-23T03:10:35.432Z,0.00
2018-01-23T03:11:35.424Z,0.00
2018-01-23T03:12:35.416Z,0.00
2018-01-23T03:13:35.409Z,0.00
2018-01-23T03:14:35.401Z,0.00
2018-01-23T03:15:35.389Z,0.00
2018-01-23T03:16:35.383Z,0.00
2018-01-23T03:17:35.373Z,0.00
2018-01-23T03:18:35.365Z,0.00
2018-01-23T03:19:35.361Z,0.00
2018-01-23T03:20:35.353Z,0.00
2018-01-23T03:21:35.346Z,0.00
2018-01-23T03:22:35.337Z,0.00
2018-01-23T03:23:35.325Z,0.00
2018-01-23T03:24:35.318Z,0.00
2018-01-23T03:25:35.309Z,0.00
2018-01-23T03:26:35.301Z,0.00
2018-01-23T03:27:35.293Z,0.00
2018-01-23T03:28:35.286Z,0.00
2018-01-23T03:29:35.278Z,0.00
2018-01-23T03:30:35.271Z,0.00
2018-01-23T03:31:35.267Z,0.00
2018-01-23T03:32:35.258Z,0.00
2018-01-23T03:33:35.250Z,0.00
2018-01-23T03:34:35.241Z,0.00
2018-01-23T03:35:35.233Z,0.00
2018-01-23T03:36:35.227Z,0.00
2018-01-23T03:37:35.218Z,0.00
2018-01-23T03:38:35.209Z,0.00
2018-01-23T03:39:35.198Z,0.00
2018-01-23T03:40:35.195Z,0.00
2018-01-23T03:41:35.183Z,0.00
2018-01-23T03:42:35.173Z,0.00
2018-01-23T03:43:35.167Z,0.00
2018-01-23T03:44:35.158Z,0.00
2018-01-23T03:45:35.150Z,0.00
2018-01-23T03:46:35.142Z,0.00
2018-01-23T03:47:35.140Z,0.00
2018-01-23T03:48:35.131Z,0.00
2018-01-23T03:49:35.125Z,0.00
2018-01-23T03:50:35.118Z,0.00
2018-01-23T03:51:35.108Z,0.00
2018-01-23T03:52:35.100Z,0.00
2018-01-23T03:53:35.092Z,0.00
2018-01-23T03:54:35.083Z,0.00
2018-01-23T03:55:35.078Z,0.00
2018-01-23T03:56:35.064Z,0.00
2018-01-23T03:57:35.057Z,0.00
2018-01-23T03:58:35.048Z,0.00
2018-01-23T03:59:35.039Z,0.00
2018-01-23T04:00:35.032Z,0.00
2018-01-23T04:01:35.024Z,0.00
2018-01-23T04:02:35.015Z,0.00
2018-01-23T04:03:35.012Z,0.00
2018-01-23T04:04:35.004Z,0.00
2018-01-23T04:05:34.996Z,0.00
2018-01-23T04:06:34.987Z,0.00
2018-01-23T04:07:34.979Z,0.00
2018-01-23T04:08:34.972Z,0.00
2018-01-23T04:09:34.965Z,0.00
2018-01-23T04:10:34.956Z,0.00
2018-01-23T04:11:34.944Z,0.00
2018-01-23T04:12:34.936Z,0.00
2018-01-23T04:13:34.931Z,0.00
2018-01-23T04:14:34.922Z,0.00
2018-01-23T04:15:34.912Z,0.00
2018-01-23T04:16:34.906Z,0.00
2018-01-23T04:17:34.897Z,0.00
2018-01-23T04:18:34.890Z,0.00
2018-01-23T04:19:34.884Z,0.00
2018-01-23T04:20:34.877Z,0.00
2018-01-23T04:21:34.875Z,0.00
2018-01-23T04:22:34.862Z,0.00
2018-01-23T04:23:34.849Z,0.00
2018-01-23T04:24:34.842Z,0.00
2018-01-23T04:25:34.846Z,0.00
2018-01-23T04:26:34.826Z,0.00
2018-01-23T04:27:34.822Z,0.00
2018-01-23T04:28:34.814Z,0.00
2018-01-23T04:29:34.807Z,0.00
2018-01-23T04:30:34.799Z,0.00
2018-01-23T04:31:34.790Z,0.00
2018-01-23T04:32:34.782Z,0.00
2018-01-23T04:33:34.775Z,0.00
2018-01-23T04:34:34.768Z,0.00
2018-01-23T04:35:34.755Z,0.00
2018-01-23T04:36:34.746Z,0.00
2018-01-23T04:37:34.739Z,0.00
2018-01-23T04:38:34.730Z,0.00
2018-01-23T04:39:34.725Z,0.00
2018-01-23T04:40:34.715Z,0.00
2018-01-23T04:41:34.708Z,0.00
2018-01-23T04:42:34.699Z,0.00
2018-01-23T04:43:34.696Z,0.00
2018-01-23T04:44:34.691Z,0.00
2018-01-23T04:45:34.685Z,0.00
2018-01-23T04:46:34.672Z,0.00
2018-01-23T04:47:34.667Z,0.00
2018-01-23T04:48:34.656Z,0.00
2018-01-23T04:49:34.649Z,0.00
2018-01-23T04:50:34.640Z,0.00
2018-01-23T04:51:34.628Z,0.00
2018-01-23T04:52:34.620Z,0.00
2018-01-23T04:53:34.613Z,0.00
2018-01-23T04:54:34.605Z,0.00
2018-01-23T04:55:34.597Z,0.00
2018-01-23T04:56:34.589Z,0.00
2018-01-23T04:57:34.582Z,0.00
2018-01-23T04:58:34.574Z,0.00
2018-01-23T04:59:34.570Z,0.00
2018-01-23T05:00:34.562Z,0.00
2018-01-23T05:01:34.554Z,0.00
2018-01-23T05:02:34.546Z,0.00
2018-01-23T05:03:34.538Z,0.00
2018-01-23T05:04:34.532Z,0.00
2018-01-23T05:05:34.522Z,0.00
2018-01-23T05:06:34.514Z,0.00
2018-01-23T05:07:34.502Z,0.00
2018-01-23T05:08:34.494Z,0.00
2018-01-23T05:09:34.493Z,0.00
2018-01-23T05:10:34.478Z,0.00
2018-01-23T05:11:34.470Z,0.00
2018-01-23T05:12:34.462Z,0.00
2018-01-23T05:13:34.454Z,0.00
2018-01-23T05:14:34.475Z,0.00
2018-01-23T05:15:34.446Z,0.00
2018-01-23T05:16:34.441Z,0.00
2018-01-23T05:17:34.427Z,0.00
2018-01-23T05:18:34.419Z,0.00
2018-01-23T05:19:34.412Z,0.00
2018-01-23T05:20:34.405Z,0.00
2018-01-23T05:21:34.395Z,0.00
2018-01-23T05:22:34.387Z,0.00
2018-01-23T05:23:34.375Z,0.00
2018-01-23T05:24:34.369Z,0.00
2018-01-23T05:25:34.359Z,0.00
2018-01-23T05:26:34.350Z,0.00
2018-01-23T05:27:34.348Z,0.00
2018-01-23T05:28:34.341Z,0.00
2018-01-23T05:29:34.333Z,0.00
2018-01-23T05:30:34.323Z,0.00
2018-01-23T05:31:34.311Z,0.00
2018-01-23T05:32:34.304Z,0.00
2018-01-23T05:33:34.296Z,0.00
2018-01-23T05:34:34.286Z,0.00
2018-01-23T05:35:34.279Z,0.00
2018-01-23T05:36:34.273Z,0.00
2018-01-23T05:37:34.264Z,0.00
2018-01-23T05:38:34.255Z,0.00
2018-01-23T05:39:34.251Z,0.00
2018-01-23T05:40:34.245Z,0.00
2018-01-23T05:41:34.236Z,0.00
2018-01-23T05:42:34.228Z,0.00
2018-01-23T05:43:34.221Z,0.00
2018-01-23T05:44:34.212Z,0.00
2018-01-23T05:45:34.205Z,0.00
2018-01-23T05:46:34.196Z,0.00
2018-01-23T05:47:34.184Z,0.00
2018-01-23T05:48:34.176Z,0.00
2018-01-23T05:49:34.169Z,0.00
2018-01-23T05:50:34.160Z,0.00
2018-01-23T05:51:34.153Z,0.00
2018-01-23T05:52:34.144Z,0.00
2018-01-23T05:53:34.138Z,0.00
2018-01-23T05:54:34.128Z,0.00
2018-01-23T05:55:34.124Z,0.00
2018-01-23T05:56:34.117Z,0.00
2018-01-23T05:57:34.109Z,0.00
2018-01-23T05:58:34.101Z,0.00
2018-01-23T05:59:34.093Z,0.00
2018-01-23T06:00:34.085Z,0.00
2018-01-23T06:01:34.080Z,0.00
2018-01-23T06:02:34.069Z,0.00
2018-01-23T06:03:34.057Z,0.00
2018-01-23T06:04:34.049Z,0.00
2018-01-23T06:05:34.043Z,0.00
2018-01-23T06:06:34.033Z,0.00
2018-01-23T06:07:34.026Z,0.00
2018-01-23T06:08:34.023Z,0.00
2018-01-23T06:09:34.011Z,0.00
2018-01-23T06:10:34.003Z,0.00
2018-01-23T06:11:33.998Z,0.00
2018-01-23T06:12:33.991Z,0.00
2018-01-23T06:13:33.983Z,0.00
2018-01-23T06:14:33.974Z,0.00
2018-01-23T06:15:33.966Z,0.00
2018-01-23T06:16:33.958Z,0.00
2018-01-23T06:17:33.951Z,0.00
2018-01-23T06:18:33.943Z,0.00
2018-01-23T06:19:33.932Z,0.00
2018-01-23T06:20:33.922Z,0.00
2018-01-23T06:21:33.914Z,0.00
2018-01-23T06:22:33.906Z,0.00
2018-01-23T06:23:33.898Z,0.00
2018-01-23T06:24:33.891Z,0.00
2018-01-23T06:25:33.885Z,0.00
2018-01-23T06:26:33.887Z,0.00
2018-01-23T06:27:33.874Z,0.00
2018-01-23T06:28:33.864Z,0.00
2018-01-23T06:29:33.855Z,0.00
2018-01-23T06:30:33.852Z,0.00
2018-01-23T06:31:33.835Z,0.00
2018-01-23T06:32:33.827Z,0.00
2018-01-23T06:33:33.819Z,0.00
2018-01-23T06:34:33.811Z,0.00
2018-01-23T06:35:33.806Z,0.00
2018-01-23T06:36:33.799Z,0.00
2018-01-23T06:37:33.792Z,0.00
2018-01-23T06:38:33.782Z,0.00
2018-01-23T06:39:33.775Z,0.00
2018-01-23T06:40:33.771Z,0.00
2018-01-23T06:41:33.760Z,0.00
2018-01-23T06:42:33.752Z,0.00
2018-01-23T06:43:33.740Z,0.00
2018-01-23T06:44:33.731Z,0.00
2018-01-23T06:45:33.723Z,0.00
2018-01-23T06:46:33.718Z,0.00
2018-01-23T06:47:33.707Z,0.00
2018-01-23T06:48:33.700Z,0.00
2018-01-23T06:49:33.692Z,0.00
2018-01-23T06:50:33.683Z,0.00
2018-01-23T06:51:33.680Z,0.00
2018-01-23T06:52:33.672Z,0.00
2018-01-23T06:53:33.666Z,4.00
2018-01-23T06:54:33.657Z,4.00
2018-01-23T06:55:33.649Z,0.00
2018-01-23T06:56:33.640Z,4.00
2018-01-23T06:57:33.632Z,4.00
2018-01-23T06:58:33.624Z,0.00
2018-01-23T06:59:33.612Z,4.00
2018-01-23T07:00:33.605Z,4.00
2018-01-23T07:01:33.601Z,8.00
2018-01-23T07:02:33.588Z,4.00
2018-01-23T07:03:33.580Z,4.00
2018-01-23T07:04:33.573Z,8.00
2018-01-23T07:05:33.565Z,8.00
2018-01-23T07:06:33.556Z,12.00
2018-01-23T07:07:33.552Z,12.00
2018-01-23T07:08:33.545Z,12.00
2018-01-23T07:09:33.537Z,16.00
2018-01-23T07:10:33.528Z,20.00
2018-01-23T07:11:33.521Z,20.00
2018-01-23T07:12:33.513Z,20.00
2018-01-23T07:13:33.505Z,24.00
2018-01-23T07:14:33.497Z,28.00
2018-01-23T07:15:33.484Z,36.00
2018-01-23T07:16:33.477Z,36.00
2018-01-23T07:17:33.469Z,40.00
2018-01-23T07:18:33.459Z,44.00
2018-01-23T07:19:33.452Z,48.00
2018-01-23T07:20:33.444Z,56.00
2018-01-23T07:21:33.437Z,56.00
2018-01-23T07:22:33.427Z,64.00
2018-01-23T07:23:33.424Z,72.00
2018-01-23T07:24:33.416Z,84.00
2018-01-23T07:25:33.409Z,96.00
2018-01-23T07:26:33.399Z,104.00
2018-01-23T07:27:33.392Z,116.00
2018-01-23T07:28:33.384Z,124.00
2018-01-23T07:29:33.376Z,136.00
2018-01-23T07:30:33.367Z,148.00
2018-01-23T07:31:33.355Z,160.00
2018-01-23T07:32:33.347Z,168.00
2018-01-23T07:33:33.340Z,176.00
2018-01-23T07:34:33.331Z,180.00
2018-01-23T07:35:33.323Z,188.00
2018-01-23T07:36:33.315Z,196.00
2018-01-23T07:37:33.308Z,200.00
2018-01-23T07:38:33.298Z,208.00
2018-01-23T07:39:33.295Z,208.00
2018-01-23T07:40:33.287Z,208.00
2018-01-23T07:41:33.284Z,212.00
2018-01-23T07:42:33.272Z,216.00
2018-01-23T07:43:33.263Z,224.00
2018-01-23T07:44:33.256Z,236.00
2018-01-23T07:45:33.247Z,252.00
2018-01-23T07:46:33.239Z,280.00
2018-01-23T07:47:33.227Z,324.00
2018-01-23T07:48:33.219Z,332.00
2018-01-23T07:49:33.212Z,352.00
2018-01-23T07:50:33.203Z,380.00
2018-01-23T07:51:33.196Z,400.00
2018-01-23T07:52:33.187Z,408.00
2018-01-23T07:53:33.180Z,420.00
2018-01-23T07:54:33.174Z,436.00
2018-01-23T07:55:33.168Z,440.00
2018-01-23T07:56:33.160Z,432.00
2018-01-23T07:57:33.151Z,428.00
2018-01-23T07:58:33.148Z,432.00
2018-01-23T07:59:33.135Z,432.00
2018-01-23T08:00:33.128Z,444.00
2018-01-23T08:01:33.121Z,448.00
2018-01-23T08:02:33.113Z,420.00
2018-01-23T08:03:33.099Z,420.00
2018-01-23T08:04:33.092Z,440.00
2018-01-23T08:05:33.084Z,432.00
2018-01-23T08:06:33.076Z,436.00
2018-01-23T08:07:33.068Z,440.00
2018-01-23T08:08:33.103Z,416.00
2018-01-23T08:09:33.053Z,416.00
2018-01-23T08:10:33.044Z,424.00
2018-01-23T08:11:33.042Z,424.00
2018-01-23T08:12:33.034Z,408.00
2018-01-23T08:13:33.033Z,408.00
2018-01-23T08:14:33.019Z,420.00
2018-01-23T08:15:33.014Z,432.00
2018-01-23T08:16:33.003Z,440.00
2018-01-23T08:17:32.995Z,492.00
2018-01-23T08:18:32.987Z,568.00
2018-01-23T08:19:32.980Z,560.00
2018-01-23T08:20:32.970Z,556.00
2018-01-23T08:21:32.960Z,576.00
2018-01-23T08:22:32.951Z,580.00
2018-01-23T08:23:32.944Z,664.00
2018-01-23T08:24:32.939Z,712.00
2018-01-23T08:25:32.930Z,760.00
2018-01-23T08:26:32.921Z,840.00
2018-01-23T08:27:32.917Z,900.00
2018-01-23T08:28:32.910Z,968.00
2018-01-23T08:29:32.903Z,972.00
2018-01-23T08:30:32.894Z,908.00
2018-01-23T08:31:32.887Z,880.00
2018-01-23T08:32:32.880Z,852.00
2018-01-23T08:33:32.873Z,924.00
2018-01-23T08:34:32.863Z,1032.00
2018-01-23T08:35:32.852Z,1132.00
2018-01-23T08:36:32.844Z,1252.00
2018-01-23T08:37:32.837Z,1248.00
2018-01-23T08:38:32.836Z,1284.00
2018-01-23T08:39:32.827Z,1368.00
2018-01-23T08:40:32.818Z,1416.00
2018-01-23T08:41:32.811Z,1572.00
2018-01-23T08:42:32.802Z,1652.00
2018-01-23T08:43:32.792Z,1736.00
2018-01-23T08:44:32.784Z,1524.00
2018-01-23T08:45:32.777Z,1508.00
2018-01-23T08:46:32.769Z,1412.00
2018-01-23T08:47:32.761Z,1448.00
2018-01-23T08:48:32.754Z,1316.00
2018-01-23T08:49:32.746Z,1220.00
2018-01-23T08:50:32.738Z,1148.00
2018-01-23T08:51:32.736Z,1132.00
2018-01-23T08:52:32.727Z,1184.00
2018-01-23T08:53:32.720Z,1092.00
2018-01-23T08:54:32.713Z,1040.00
2018-01-23T08:55:32.706Z,1128.00
2018-01-23T08:56:32.697Z,1232.00
2018-01-23T08:57:32.690Z,1244.00
2018-01-23T08:58:32.682Z,1292.00
2018-01-23T08:59:32.670Z,1336.00
2018-01-23T09:00:32.663Z,1356.00
2018-01-23T09:01:32.658Z,1360.00
2018-01-23T09:02:32.647Z,1348.00
2018-01-23T09:03:32.641Z,1268.00
2018-01-23T09:04:32.633Z,1172.00
2018-01-23T09:05:32.626Z,1208.00
2018-01-23T09:06:32.617Z,1284.00
2018-01-23T09:07:32.615Z,1312.00
2018-01-23T09:08:32.608Z,1360.00
2018-01-23T09:09:32.600Z,1324.00
2018-01-23T09:10:32.591Z,1296.00
2018-01-23T09:11:32.586Z,1268.00
2018-01-23T09:12:32.576Z,1296.00
2018-01-23T09:13:32.570Z,1372.00
2018-01-23T09:14:32.561Z,1388.00
2018-01-23T09:15:32.550Z,1404.00
2018-01-23T09:16:32.543Z,1456.00
2018-01-23T09:17:32.537Z,1488.00
2018-01-23T09:18:32.527Z,1452.00
2018-01-23T09:19:32.571Z,1456.00
2018-01-23T09:20:32.513Z,1480.00
2018-01-23T09:21:32.507Z,1588.00
2018-01-23T09:22:32.497Z,1636.00
2018-01-23T09:23:32.496Z,1648.00
2018-01-23T09:24:32.487Z,1772.00
2018-01-23T09:25:32.481Z,1788.00
2018-01-23T09:26:32.472Z,1816.00
2018-01-23T09:27:32.465Z,1820.00
2018-01-23T09:28:32.458Z,1828.00
2018-01-23T09:29:32.450Z,1880.00
2018-01-23T09:30:32.442Z,2048.00
2018-01-23T09:31:32.430Z,2080.00
2018-01-23T09:32:32.423Z,2112.00
2018-01-23T09:33:32.416Z,2272.00
2018-01-23T09:34:32.450Z,2300.00
2018-01-23T09:35:32.401Z,2488.00
2018-01-23T09:36:32.394Z,2416.00
2018-01-23T09:37:32.387Z,2340.00
2018-01-23T09:38:32.379Z,2332.00
2018-01-23T09:39:32.375Z,2368.00
2018-01-23T09:40:32.368Z,2696.00
2018-01-23T09:41:32.361Z,3024.00
2018-01-23T09:42:32.357Z,3104.00
2018-01-23T09:43:32.342Z,2812.00
2018-01-23T09:44:32.335Z,2512.00
2018-01-23T09:45:32.328Z,2356.00
2018-01-23T09:46:32.343Z,2192.00
2018-01-23T09:47:32.317Z,2084.00
2018-01-23T09:48:32.311Z,1892.00
2018-01-23T09:49:32.302Z,1748.00
2018-01-23T09:50:32.294Z,1796.00
2018-01-23T09:51:32.287Z,1896.00
2018-01-23T09:52:32.280Z,1820.00
2018-01-23T09:53:32.273Z,1736.00
2018-01-23T09:54:32.266Z,1616.00
2018-01-23T09:55:32.254Z,1560.00
2018-01-23T09:56:32.248Z,1724.00
2018-01-23T09:57:32.240Z,1800.00
2018-01-23T09:58:32.232Z,1960.00
2018-01-23T09:59:32.230Z,2320.00
2018-01-23T10:00:32.217Z,2384.00
2018-01-23T10:01:32.211Z,2416.00
2018-01-23T10:02:32.203Z,2448.00
2018-01-23T10:03:32.199Z,2372.00
2018-01-23T10:04:32.192Z,2520.00
2018-01-23T10:05:32.186Z,2392.00
2018-01-23T10:06:32.176Z,2272.00
2018-01-23T10:07:32.173Z,2072.00
2018-01-23T10:08:32.164Z,2308.00
2018-01-23T10:09:32.155Z,2572.00
2018-01-23T10:10:32.148Z,2992.00
2018-01-23T10:11:32.136Z,3472.00
2018-01-23T10:12:32.130Z,3784.00
2018-01-23T10:13:32.122Z,3964.00
2018-01-23T10:14:32.116Z,3844.00
2018-01-23T10:15:32.107Z,3708.00
2018-01-23T10:16:32.100Z,3892.00
2018-01-23T10:17:32.093Z,3696.00
2018-01-23T10:18:32.085Z,3836.00
2018-01-23T10:19:32.082Z,3904.00
2018-01-23T10:20:32.075Z,4228.00
2018-01-23T10:21:32.068Z,5248.00
2018-01-23T10:22:32.062Z,6160.00
2018-01-23T10:23:32.054Z,6636.00
2018-01-23T10:24:32.048Z,6636.00
2018-01-23T10:25:32.040Z,7132.00
2018-01-23T10:26:32.032Z,7564.00
2018-01-23T10:27:32.024Z,9368.00
2018-01-23T10:28:32.015Z,7452.00
2018-01-23T10:29:32.008Z,6736.00
2018-01-23T10:30:32.001Z,7276.00
2018-01-23T10:31:31.994Z,7524.00
2018-01-23T10:32:31.988Z,7440.00
2018-01-23T10:33:31.982Z,6820.00
2018-01-23T10:34:31.975Z,6660.00
2018-01-23T10:35:31.974Z,6712.00
2018-01-23T10:36:31.989Z,6744.00
2018-01-23T10:37:31.961Z,6900.00
2018-01-23T10:38:31.954Z,6268.00
2018-01-23T10:39:31.952Z,6464.00
2018-01-23T10:40:31.943Z,7084.00
2018-01-23T10:41:31.938Z,9440.00
2018-01-23T10:42:31.930Z,13404.00
2018-01-23T10:43:31.921Z,9988.00
2018-01-23T10:44:31.916Z,8100.00
2018-01-23T10:45:31.910Z,7980.00
2018-01-23T10:46:31.906Z,8248.00
2018-01-23T10:47:31.903Z,8112.00
2018-01-23T10:48:31.898Z,7952.00
2018-01-23T10:49:31.899Z,8064.00
2018-01-23T10:50:31.937Z,7660.00
2018-01-23T10:51:31.880Z,7000.00
2018-01-23T10:52:31.874Z,6596.00
2018-01-23T10:53:31.871Z,6344.00
2018-01-23T10:54:31.881Z,6192.00
2018-01-23T10:55:31.860Z,6212.00
2018-01-23T10:56:31.856Z,6032.00
2018-01-23T10:57:31.851Z,5656.00
2018-01-23T10:58:31.845Z,5720.00
2018-01-23T10:59:31.845Z,5804.00
2018-01-23T11:00:31.841Z,6300.00
2018-01-23T11:01:31.854Z,6616.00
2018-01-23T11:02:31.831Z,6636.00
2018-01-23T11:03:31.826Z,7096.00
2018-01-23T11:04:31.821Z,6992.00
2018-01-23T11:05:31.817Z,6532.00
2018-01-23T11:06:31.810Z,5800.00
2018-01-23T11:07:31.802Z,5512.00
2018-01-23T11:08:31.798Z,5448.00
2018-01-23T11:09:31.799Z,5212.00
2018-01-23T11:10:31.788Z,5020.00
2018-01-23T11:11:31.783Z,4104.00
2018-01-23T11:12:31.777Z,3176.00
2018-01-23T11:13:31.774Z,2624.00
2018-01-23T11:14:31.767Z,2180.00
2018-01-23T11:15:31.767Z,2800.00
2018-01-23T11:16:31.764Z,3224.00
2018-01-23T11:17:31.758Z,3944.00
2018-01-23T11:18:31.751Z,3696.00
2018-01-23T11:19:31.746Z,3228.00
2018-01-23T11:20:31.742Z,3976.00
2018-01-23T11:21:31.736Z,5136.00
2018-01-23T11:22:31.731Z,6244.00
2018-01-23T11:23:31.721Z,5960.00
2018-01-23T11:24:31.715Z,6288.00
2018-01-23T11:25:31.769Z,7268.00
2018-01-23T11:26:31.707Z,7504.00
2018-01-23T11:27:31.698Z,7296.00
2018-01-23T11:28:31.694Z,7156.00
2018-01-23T11:29:31.688Z,6848.00
2018-01-23T11:30:31.696Z,7044.00
2018-01-23T11:31:31.682Z,6784.00
2018-01-23T11:32:31.676Z,6380.00
2018-01-23T11:33:31.671Z,5900.00
2018-01-23T11:34:31.664Z,5092.00
2018-01-23T11:35:31.659Z,4424.00
2018-01-23T11:36:31.654Z,4016.00
2018-01-23T11:37:31.648Z,4124.00
2018-01-23T11:38:31.643Z,3908.00
2018-01-23T11:39:31.634Z,3844.00
2018-01-23T11:40:31.628Z,3708.00
2018-01-23T11:41:31.623Z,3596.00
2018-01-23T11:42:31.617Z,3644.00
2018-01-23T11:43:31.611Z,3884.00
2018-01-23T11:44:31.607Z,3920.00
2018-01-23T11:45:31.602Z,3944.00
2018-01-23T11:46:31.595Z,3820.00
2018-01-23T11:47:31.596Z,3640.00
2018-01-23T11:48:31.590Z,3676.00
2018-01-23T11:49:31.584Z,4060.00
2018-01-23T11:50:31.577Z,4616.00
2018-01-23T11:51:31.610Z,4116.00
2018-01-23T11:52:31.562Z,3848.00
2018-01-23T11:53:31.557Z,3924.00
2018-01-23T11:54:31.552Z,4148.00
2018-01-23T11:55:31.549Z,4036.00
2018-01-23T11:56:31.544Z,3948.00
2018-01-23T11:57:31.539Z,3740.00
2018-01-23T11:58:31.533Z,3864.00
2018-01-23T11:59:31.527Z,3692.00
2018-01-23T12:00:31.522Z,4012.00
2018-01-23T12:01:31.516Z,4064.00
2018-01-23T12:02:31.511Z,4144.00
2018-01-23T12:03:31.503Z,4180.00
2018-01-23T12:04:31.494Z,4376.00
2018-01-23T12:05:31.490Z,4336.00
2018-01-23T12:06:31.481Z,4028.00
2018-01-23T12:07:31.476Z,3952.00
2018-01-23T12:08:31.470Z,4564.00
2018-01-23T12:09:31.464Z,4492.00
2018-01-23T12:10:31.466Z,4228.00
2018-01-23T12:11:31.456Z,3764.00
2018-01-23T12:12:31.450Z,3760.00
2018-01-23T12:13:31.444Z,3740.00
2018-01-23T12:14:31.439Z,4088.00
2018-01-23T12:15:31.433Z,4372.00
2018-01-23T12:16:31.427Z,4764.00
2018-01-23T12:17:31.421Z,5100.00
2018-01-23T12:18:31.415Z,5584.00
2018-01-23T12:19:31.403Z,5212.00
2018-01-23T12:20:31.398Z,5068.00
2018-01-23T12:21:31.391Z,5048.00
2018-01-23T12:22:31.385Z,4840.00
2018-01-23T12:23:31.379Z,4884.00
2018-01-23T12:24:31.375Z,5076.00
2018-01-23T12:25:31.368Z,4836.00
2018-01-23T12:26:31.364Z,4636.00
2018-01-23T12:27:31.360Z,5012.00
2018-01-23T12:28:31.354Z,5456.00
2018-01-23T12:29:31.348Z,5008.00
2018-01-23T12:30:31.341Z,4968.00
2018-01-23T12:31:31.343Z,5444.00
2018-01-23T12:32:31.330Z,5688.00
2018-01-23T12:33:31.324Z,4540.00
2018-01-23T12:34:31.317Z,4648.00
2018-01-23T12:35:31.350Z,4800.00
2018-01-23T12:36:31.302Z,5116.00
2018-01-23T12:37:31.297Z,5772.00
2018-01-23T12:38:31.289Z,5748.00
2018-01-23T12:39:31.284Z,5764.00
2018-01-23T12:40:31.278Z,6156.00
2018-01-23T12:41:31.272Z,5956.00
2018-01-23T12:42:31.265Z,6184.00
2018-01-23T12:43:31.264Z,5740.00
2018-01-23T12:44:31.259Z,5824.00
2018-01-23T12:45:31.255Z,5048.00
2018-01-23T12:46:31.247Z,5436.00
2018-01-23T12:47:31.241Z,5860.00
2018-01-23T12:48:31.237Z,6136.00